sensor_id;sensor_type;location;lat;lon;timestamp;P1;durP1;ratioP1;P2;durP2;ratioP2
15502;SDS011;7853;52.186;5.948;2023-10-09T00:00:59;23.52;;;12.21;;
15502;SDS011;7853;52.186;5.948;2023-10-09T00:01:50;22.03;;;12.06;;
15502;SDS011;7853;52.186;5.948;2023-10-09T00:02:42;21.36;;;12.21;;
15502;SDS011;7853;52.186;5.948;2023-10-09T00:03:38;23.72;;;12.80;;
15502;SDS011;7853;52.186;5.948;2023-10-09T00:04:36;23.98;;;12.56;;
15502;SDS011;7853;52.186;5.948;2023-10-09T00:05:35;24.97;;;13.01;;
15502;SDS011;7853;52.186;5.948;2023-10-09T00:06:34;23.44;;;13.19;;
15502;SDS011;7853;52.186;5.948;2023-10-09T00:07:34;22.75;;;12.75;;
15502;SDS011;7853;52.186;5.948;2023-10-09T00:08:34;21.47;;;12.04;;
15502;SDS011;7853;52.186;5.948;2023-10-09T00:09:34;22.27;;;12.56;;
15502;SDS011;7853;52.186;5.948;2023-10-09T00:10:34;21.32;;;11.50;;
15502;SDS011;7853;52.186;5.948;2023-10-09T00:11:34;23.35;;;12.54;;
15502;SDS011;7853;52.186;5.948;2023-10-09T00:12:34;24.24;;;13.70;;
15502;SDS011;7853;52.186;5.948;2023-10-09T00:13:34;22.85;;;12.47;;
15502;SDS011;7853;52.186;5.948;2023-10-09T00:14:34;22.43;;;12.99;;
15502;SDS011;7853;52.186;5.948;2023-10-09T00:15:34;23.03;;;12.67;;
15502;SDS011;7853;52.186;5.948;2023-10-09T00:16:34;23.21;;;12.56;;
15502;SDS011;7853;52.186;5.948;2023-10-09T00:17:34;23.83;;;12.86;;
15502;SDS011;7853;52.186;5.948;2023-10-09T00:18:34;23.07;;;11.97;;
15502;SDS011;7853;52.186;5.948;2023-10-09T00:19:34;23.25;;;12.36;;
15502;SDS011;7853;52.186;5.948;2023-10-09T00:20:35;24.39;;;12.84;;
15502;SDS011;7853;52.186;5.948;2023-10-09T00:21:34;21.39;;;12.14;;
15502;SDS011;7853;52.186;5.948;2023-10-09T00:22:34;24.49;;;12.42;;
15502;SDS011;7853;52.186;5.948;2023-10-09T00:23:34;22.21;;;11.96;;
15502;SDS011;7853;52.186;5.948;2023-10-09T00:24:34;22.62;;;12.13;;
15502;SDS011;7853;52.186;5.948;2023-10-09T00:25:34;23.36;;;12.49;;
15502;SDS011;7853;52.186;5.948;2023-10-09T00:26:34;21.41;;;11.79;;
15502;SDS011;7853;52.186;5.948;2023-10-09T00:27:34;21.69;;;11.77;;
15502;SDS011;7853;52.186;5.948;2023-10-09T00:28:35;21.93;;;12.34;;
15502;SDS011;7853;52.186;5.948;2023-10-09T00:29:34;22.35;;;11.57;;
15502;SDS011;7853;52.186;5.948;2023-10-09T00:30:34;23.51;;;12.30;;
15502;SDS011;7853;52.186;5.948;2023-10-09T00:31:34;20.86;;;11.61;;
15502;SDS011;7853;52.186;5.948;2023-10-09T00:32:34;21.33;;;12.06;;
15502;SDS011;7853;52.186;5.948;2023-10-09T00:33:34;21.01;;;11.84;;
15502;SDS011;7853;52.186;5.948;2023-10-09T00:34:34;22.30;;;11.79;;
15502;SDS011;7853;52.186;5.948;2023-10-09T00:35:37;21.45;;;12.07;;
15502;SDS011;7853;52.186;5.948;2023-10-09T00:36:34;20.00;;;12.15;;
15502;SDS011;7853;52.186;5.948;2023-10-09T00:37:34;22.92;;;12.40;;
15502;SDS011;7853;52.186;5.948;2023-10-09T00:38:34;20.65;;;12.16;;
15502;SDS011;7853;52.186;5.948;2023-10-09T00:39:34;24.61;;;12.81;;
15502;SDS011;7853;52.186;5.948;2023-10-09T00:40:34;23.06;;;12.13;;
15502;SDS011;7853;52.186;5.948;2023-10-09T00:41:34;23.64;;;12.61;;
15502;SDS011;7853;52.186;5.948;2023-10-09T00:42:35;22.48;;;12.31;;
15502;SDS011;7853;52.186;5.948;2023-10-09T00:43:34;21.43;;;11.98;;
15502;SDS011;7853;52.186;5.948;2023-10-09T00:44:35;22.15;;;12.31;;
15502;SDS011;7853;52.186;5.948;2023-10-09T00:45:34;21.82;;;12.03;;
15502;SDS011;7853;52.186;5.948;2023-10-09T00:46:35;19.77;;;11.57;;
15502;SDS011;7853;52.186;5.948;2023-10-09T00:47:35;22.26;;;12.66;;
15502;SDS011;7853;52.186;5.948;2023-10-09T00:48:35;22.52;;;12.21;;
15502;SDS011;7853;52.186;5.948;2023-10-09T00:49:35;22.19;;;12.13;;
15502;SDS011;7853;52.186;5.948;2023-10-09T00:50:35;21.34;;;11.74;;
15502;SDS011;7853;52.186;5.948;2023-10-09T00:51:36;21.79;;;12.20;;
15502;SDS011;7853;52.186;5.948;2023-10-09T00:52:35;22.56;;;12.79;;
15502;SDS011;7853;52.186;5.948;2023-10-09T00:53:35;23.47;;;11.77;;
15502;SDS011;7853;52.186;5.948;2023-10-09T00:54:35;24.09;;;12.54;;
15502;SDS011;7853;52.186;5.948;2023-10-09T00:55:35;22.87;;;12.33;;
15502;SDS011;7853;52.186;5.948;2023-10-09T00:56:35;21.42;;;12.11;;
15502;SDS011;7853;52.186;5.948;2023-10-09T00:57:35;23.38;;;12.88;;
15502;SDS011;7853;52.186;5.948;2023-10-09T00:58:35;21.63;;;12.33;;
15502;SDS011;7853;52.186;5.948;2023-10-09T00:59:35;24.28;;;12.74;;
15502;SDS011;7853;52.186;5.948;2023-10-09T01:00:35;20.95;;;11.56;;
15502;SDS011;7853;52.186;5.948;2023-10-09T01:01:35;21.84;;;11.54;;
15502;SDS011;7853;52.186;5.948;2023-10-09T01:02:35;20.33;;;11.13;;
15502;SDS011;7853;52.186;5.948;2023-10-09T01:03:35;24.02;;;12.58;;
15502;SDS011;7853;52.186;5.948;2023-10-09T01:04:35;23.48;;;12.79;;
15502;SDS011;7853;52.186;5.948;2023-10-09T01:05:35;23.95;;;12.60;;
15502;SDS011;7853;52.186;5.948;2023-10-09T01:06:35;22.73;;;11.46;;
15502;SDS011;7853;52.186;5.948;2023-10-09T01:07:35;21.78;;;12.35;;
15502;SDS011;7853;52.186;5.948;2023-10-09T01:08:35;22.58;;;12.54;;
15502;SDS011;7853;52.186;5.948;2023-10-09T01:09:35;23.06;;;12.78;;
15502;SDS011;7853;52.186;5.948;2023-10-09T01:10:43;21.94;;;12.43;;
15502;SDS011;7853;52.186;5.948;2023-10-09T01:11:35;22.40;;;12.37;;
15502;SDS011;7853;52.186;5.948;2023-10-09T01:12:35;22.52;;;13.12;;
15502;SDS011;7853;52.186;5.948;2023-10-09T01:13:35;25.07;;;13.40;;
15502;SDS011;7853;52.186;5.948;2023-10-09T01:14:35;24.29;;;13.96;;
15502;SDS011;7853;52.186;5.948;2023-10-09T01:15:35;23.00;;;12.92;;
15502;SDS011;7853;52.186;5.948;2023-10-09T01:16:35;23.71;;;12.42;;
15502;SDS011;7853;52.186;5.948;2023-10-09T01:17:35;21.40;;;12.87;;
15502;SDS011;7853;52.186;5.948;2023-10-09T01:18:35;22.91;;;13.01;;
15502;SDS011;7853;52.186;5.948;2023-10-09T01:19:35;21.55;;;12.11;;
15502;SDS011;7853;52.186;5.948;2023-10-09T01:20:35;20.65;;;12.50;;
15502;SDS011;7853;52.186;5.948;2023-10-09T01:21:35;22.82;;;12.78;;
15502;SDS011;7853;52.186;5.948;2023-10-09T01:22:35;23.81;;;13.39;;
15502;SDS011;7853;52.186;5.948;2023-10-09T01:23:35;19.17;;;11.82;;
15502;SDS011;7853;52.186;5.948;2023-10-09T01:24:35;21.27;;;11.46;;
15502;SDS011;7853;52.186;5.948;2023-10-09T01:25:35;22.15;;;12.97;;
15502;SDS011;7853;52.186;5.948;2023-10-09T01:26:35;23.54;;;13.17;;
15502;SDS011;7853;52.186;5.948;2023-10-09T01:27:35;22.31;;;13.35;;
15502;SDS011;7853;52.186;5.948;2023-10-09T01:28:35;22.39;;;12.97;;
15502;SDS011;7853;52.186;5.948;2023-10-09T01:29:35;19.89;;;11.14;;
15502;SDS011;7853;52.186;5.948;2023-10-09T01:30:35;25.31;;;13.01;;
15502;SDS011;7853;52.186;5.948;2023-10-09T01:31:35;22.77;;;12.32;;
15502;SDS011;7853;52.186;5.948;2023-10-09T01:32:35;20.48;;;11.92;;
15502;SDS011;7853;52.186;5.948;2023-10-09T01:33:35;20.27;;;11.82;;
15502;SDS011;7853;52.186;5.948;2023-10-09T01:34:35;23.44;;;12.49;;
15502;SDS011;7853;52.186;5.948;2023-10-09T01:35:35;22.41;;;12.23;;
15502;SDS011;7853;52.186;5.948;2023-10-09T01:36:35;21.28;;;12.51;;
15502;SDS011;7853;52.186;5.948;2023-10-09T01:37:35;22.83;;;12.21;;
15502;SDS011;7853;52.186;5.948;2023-10-09T01:38:35;22.36;;;11.75;;
15502;SDS011;7853;52.186;5.948;2023-10-09T01:39:35;21.31;;;11.63;;
15502;SDS011;7853;52.186;5.948;2023-10-09T01:40:35;22.92;;;12.53;;
15502;SDS011;7853;52.186;5.948;2023-10-09T01:41:35;23.64;;;12.38;;
15502;SDS011;7853;52.186;5.948;2023-10-09T01:42:35;21.28;;;12.32;;
15502;SDS011;7853;52.186;5.948;2023-10-09T01:43:35;24.07;;;13.46;;
15502;SDS011;7853;52.186;5.948;2023-10-09T01:44:35;20.10;;;11.21;;
15502;SDS011;7853;52.186;5.948;2023-10-09T01:45:35;21.06;;;12.33;;
15502;SDS011;7853;52.186;5.948;2023-10-09T01:46:35;19.41;;;11.99;;
15502;SDS011;7853;52.186;5.948;2023-10-09T01:47:35;20.96;;;12.43;;
15502;SDS011;7853;52.186;5.948;2023-10-09T01:48:35;21.89;;;13.21;;
15502;SDS011;7853;52.186;5.948;2023-10-09T01:49:35;22.82;;;13.46;;
15502;SDS011;7853;52.186;5.948;2023-10-09T01:50:35;23.18;;;12.94;;
15502;SDS011;7853;52.186;5.948;2023-10-09T01:51:35;20.04;;;11.88;;
15502;SDS011;7853;52.186;5.948;2023-10-09T01:52:35;21.42;;;11.02;;
15502;SDS011;7853;52.186;5.948;2023-10-09T01:53:35;21.32;;;11.51;;
15502;SDS011;7853;52.186;5.948;2023-10-09T01:54:35;22.15;;;12.38;;
15502;SDS011;7853;52.186;5.948;2023-10-09T01:55:35;17.43;;;10.61;;
15502;SDS011;7853;52.186;5.948;2023-10-09T01:56:35;20.99;;;11.38;;
15502;SDS011;7853;52.186;5.948;2023-10-09T01:57:35;20.15;;;11.85;;
15502;SDS011;7853;52.186;5.948;2023-10-09T01:58:35;20.08;;;12.29;;
15502;SDS011;7853;52.186;5.948;2023-10-09T01:59:35;22.20;;;12.90;;
15502;SDS011;7853;52.186;5.948;2023-10-09T02:00:35;21.17;;;12.24;;
15502;SDS011;7853;52.186;5.948;2023-10-09T02:01:35;18.28;;;11.19;;
15502;SDS011;7853;52.186;5.948;2023-10-09T02:02:35;22.04;;;12.07;;
15502;SDS011;7853;52.186;5.948;2023-10-09T02:03:35;21.74;;;11.32;;
15502;SDS011;7853;52.186;5.948;2023-10-09T02:04:35;21.94;;;12.13;;
15502;SDS011;7853;52.186;5.948;2023-10-09T02:05:35;22.75;;;11.13;;
15502;SDS011;7853;52.186;5.948;2023-10-09T02:06:35;21.23;;;11.55;;
15502;SDS011;7853;52.186;5.948;2023-10-09T02:07:35;20.56;;;11.61;;
15502;SDS011;7853;52.186;5.948;2023-10-09T02:08:35;18.48;;;10.90;;
15502;SDS011;7853;52.186;5.948;2023-10-09T02:09:35;20.03;;;12.38;;
15502;SDS011;7853;52.186;5.948;2023-10-09T02:10:35;20.02;;;12.24;;
15502;SDS011;7853;52.186;5.948;2023-10-09T02:11:35;20.63;;;12.06;;
15502;SDS011;7853;52.186;5.948;2023-10-09T02:12:35;20.81;;;11.85;;
15502;SDS011;7853;52.186;5.948;2023-10-09T02:13:35;18.93;;;11.56;;
15502;SDS011;7853;52.186;5.948;2023-10-09T02:14:37;22.65;;;12.27;;
15502;SDS011;7853;52.186;5.948;2023-10-09T02:15:35;20.10;;;12.33;;
15502;SDS011;7853;52.186;5.948;2023-10-09T02:16:35;19.57;;;12.11;;
15502;SDS011;7853;52.186;5.948;2023-10-09T02:17:35;21.78;;;12.00;;
15502;SDS011;7853;52.186;5.948;2023-10-09T02:18:35;19.39;;;12.07;;
15502;SDS011;7853;52.186;5.948;2023-10-09T02:19:35;22.28;;;12.03;;
15502;SDS011;7853;52.186;5.948;2023-10-09T02:20:35;21.02;;;12.15;;
15502;SDS011;7853;52.186;5.948;2023-10-09T02:21:35;21.25;;;12.85;;
15502;SDS011;7853;52.186;5.948;2023-10-09T02:22:35;19.95;;;11.79;;
15502;SDS011;7853;52.186;5.948;2023-10-09T02:23:35;20.43;;;11.69;;
15502;SDS011;7853;52.186;5.948;2023-10-09T02:24:35;21.75;;;12.31;;
15502;SDS011;7853;52.186;5.948;2023-10-09T02:25:35;23.42;;;12.89;;
15502;SDS011;7853;52.186;5.948;2023-10-09T02:26:35;19.15;;;10.93;;
15502;SDS011;7853;52.186;5.948;2023-10-09T02:27:35;19.34;;;11.45;;
15502;SDS011;7853;52.186;5.948;2023-10-09T02:28:35;20.94;;;11.44;;
15502;SDS011;7853;52.186;5.948;2023-10-09T02:29:35;17.22;;;10.20;;
15502;SDS011;7853;52.186;5.948;2023-10-09T02:30:35;17.90;;;10.97;;
15502;SDS011;7853;52.186;5.948;2023-10-09T02:31:35;18.47;;;11.24;;
15502;SDS011;7853;52.186;5.948;2023-10-09T02:32:35;20.14;;;11.11;;
15502;SDS011;7853;52.186;5.948;2023-10-09T02:33:35;19.42;;;11.71;;
15502;SDS011;7853;52.186;5.948;2023-10-09T02:34:35;18.85;;;11.67;;
15502;SDS011;7853;52.186;5.948;2023-10-09T02:35:35;18.46;;;11.02;;
15502;SDS011;7853;52.186;5.948;2023-10-09T02:36:35;19.19;;;10.55;;
15502;SDS011;7853;52.186;5.948;2023-10-09T02:37:35;19.33;;;11.29;;
15502;SDS011;7853;52.186;5.948;2023-10-09T02:38:35;20.10;;;11.37;;
15502;SDS011;7853;52.186;5.948;2023-10-09T02:39:35;20.59;;;11.51;;
15502;SDS011;7853;52.186;5.948;2023-10-09T02:40:35;20.15;;;11.61;;
15502;SDS011;7853;52.186;5.948;2023-10-09T02:41:35;18.53;;;11.51;;
15502;SDS011;7853;52.186;5.948;2023-10-09T02:42:35;19.71;;;10.91;;
15502;SDS011;7853;52.186;5.948;2023-10-09T02:43:35;21.28;;;11.27;;
15502;SDS011;7853;52.186;5.948;2023-10-09T02:44:35;19.21;;;11.04;;
15502;SDS011;7853;52.186;5.948;2023-10-09T02:45:35;18.61;;;11.08;;
15502;SDS011;7853;52.186;5.948;2023-10-09T02:46:35;18.41;;;11.11;;
15502;SDS011;7853;52.186;5.948;2023-10-09T02:47:35;20.09;;;10.73;;
15502;SDS011;7853;52.186;5.948;2023-10-09T02:48:35;19.46;;;11.14;;
15502;SDS011;7853;52.186;5.948;2023-10-09T02:49:35;19.06;;;10.84;;
15502;SDS011;7853;52.186;5.948;2023-10-09T02:50:35;19.61;;;11.76;;
15502;SDS011;7853;52.186;5.948;2023-10-09T02:51:35;17.01;;;10.57;;
15502;SDS011;7853;52.186;5.948;2023-10-09T02:52:35;18.58;;;10.69;;
15502;SDS011;7853;52.186;5.948;2023-10-09T02:53:35;18.38;;;10.82;;
15502;SDS011;7853;52.186;5.948;2023-10-09T02:54:35;17.33;;;10.42;;
15502;SDS011;7853;52.186;5.948;2023-10-09T02:55:35;18.63;;;10.70;;
15502;SDS011;7853;52.186;5.948;2023-10-09T02:56:35;19.44;;;10.77;;
15502;SDS011;7853;52.186;5.948;2023-10-09T02:57:35;18.89;;;10.95;;
15502;SDS011;7853;52.186;5.948;2023-10-09T02:58:35;18.45;;;11.11;;
15502;SDS011;7853;52.186;5.948;2023-10-09T02:59:35;19.41;;;11.05;;
15502;SDS011;7853;52.186;5.948;2023-10-09T03:00:35;17.94;;;10.77;;
15502;SDS011;7853;52.186;5.948;2023-10-09T03:01:35;19.20;;;11.49;;
15502;SDS011;7853;52.186;5.948;2023-10-09T03:02:35;17.94;;;10.63;;
15502;SDS011;7853;52.186;5.948;2023-10-09T03:03:35;16.68;;;10.13;;
15502;SDS011;7853;52.186;5.948;2023-10-09T03:04:35;18.42;;;10.59;;
15502;SDS011;7853;52.186;5.948;2023-10-09T03:05:35;17.35;;;10.57;;
15502;SDS011;7853;52.186;5.948;2023-10-09T03:06:35;19.33;;;10.59;;
15502;SDS011;7853;52.186;5.948;2023-10-09T03:07:35;17.71;;;9.59;;
15502;SDS011;7853;52.186;5.948;2023-10-09T03:08:35;16.18;;;9.86;;
15502;SDS011;7853;52.186;5.948;2023-10-09T03:09:35;15.68;;;9.80;;
15502;SDS011;7853;52.186;5.948;2023-10-09T03:10:35;18.04;;;10.55;;
15502;SDS011;7853;52.186;5.948;2023-10-09T03:11:35;19.24;;;10.70;;
15502;SDS011;7853;52.186;5.948;2023-10-09T03:12:35;17.20;;;10.95;;
15502;SDS011;7853;52.186;5.948;2023-10-09T03:13:35;16.75;;;10.23;;
15502;SDS011;7853;52.186;5.948;2023-10-09T03:14:36;18.05;;;10.61;;
15502;SDS011;7853;52.186;5.948;2023-10-09T03:15:35;15.45;;;9.19;;
15502;SDS011;7853;52.186;5.948;2023-10-09T03:16:35;16.56;;;9.63;;
15502;SDS011;7853;52.186;5.948;2023-10-09T03:17:35;15.29;;;9.32;;
15502;SDS011;7853;52.186;5.948;2023-10-09T03:18:35;17.60;;;10.08;;
15502;SDS011;7853;52.186;5.948;2023-10-09T03:19:35;16.87;;;10.13;;
15502;SDS011;7853;52.186;5.948;2023-10-09T03:20:35;17.30;;;9.79;;
15502;SDS011;7853;52.186;5.948;2023-10-09T03:21:35;17.34;;;10.37;;
15502;SDS011;7853;52.186;5.948;2023-10-09T03:22:35;15.24;;;9.17;;
15502;SDS011;7853;52.186;5.948;2023-10-09T03:23:35;16.42;;;9.06;;
15502;SDS011;7853;52.186;5.948;2023-10-09T03:24:35;15.83;;;10.10;;
15502;SDS011;7853;52.186;5.948;2023-10-09T03:25:35;17.33;;;10.07;;
15502;SDS011;7853;52.186;5.948;2023-10-09T03:26:35;16.27;;;9.91;;
15502;SDS011;7853;52.186;5.948;2023-10-09T03:27:35;15.86;;;9.34;;
15502;SDS011;7853;52.186;5.948;2023-10-09T03:28:35;19.57;;;10.35;;
15502;SDS011;7853;52.186;5.948;2023-10-09T03:29:35;17.08;;;9.27;;
15502;SDS011;7853;52.186;5.948;2023-10-09T03:30:35;15.76;;;9.88;;
15502;SDS011;7853;52.186;5.948;2023-10-09T03:31:35;17.59;;;9.41;;
15502;SDS011;7853;52.186;5.948;2023-10-09T03:32:35;15.27;;;9.45;;
15502;SDS011;7853;52.186;5.948;2023-10-09T03:33:35;18.68;;;10.33;;
15502;SDS011;7853;52.186;5.948;2023-10-09T03:34:35;16.02;;;10.22;;
15502;SDS011;7853;52.186;5.948;2023-10-09T03:35:35;17.06;;;8.79;;
15502;SDS011;7853;52.186;5.948;2023-10-09T03:36:35;14.29;;;8.64;;
15502;SDS011;7853;52.186;5.948;2023-10-09T03:37:35;16.32;;;8.88;;
15502;SDS011;7853;52.186;5.948;2023-10-09T03:38:35;15.21;;;8.87;;
15502;SDS011;7853;52.186;5.948;2023-10-09T03:39:35;15.09;;;9.86;;
15502;SDS011;7853;52.186;5.948;2023-10-09T03:40:35;15.85;;;9.43;;
15502;SDS011;7853;52.186;5.948;2023-10-09T03:41:35;17.51;;;9.73;;
15502;SDS011;7853;52.186;5.948;2023-10-09T03:42:35;16.44;;;9.26;;
15502;SDS011;7853;52.186;5.948;2023-10-09T03:43:35;18.16;;;9.32;;
15502;SDS011;7853;52.186;5.948;2023-10-09T03:44:35;16.30;;;9.53;;
15502;SDS011;7853;52.186;5.948;2023-10-09T03:45:35;16.46;;;9.44;;
15502;SDS011;7853;52.186;5.948;2023-10-09T03:46:35;17.85;;;10.08;;
15502;SDS011;7853;52.186;5.948;2023-10-09T03:47:35;15.56;;;9.02;;
15502;SDS011;7853;52.186;5.948;2023-10-09T03:48:35;16.74;;;9.54;;
15502;SDS011;7853;52.186;5.948;2023-10-09T03:49:35;17.61;;;9.37;;
15502;SDS011;7853;52.186;5.948;2023-10-09T03:50:35;16.70;;;9.42;;
15502;SDS011;7853;52.186;5.948;2023-10-09T03:51:35;16.20;;;9.35;;
15502;SDS011;7853;52.186;5.948;2023-10-09T03:52:35;14.68;;;8.90;;
15502;SDS011;7853;52.186;5.948;2023-10-09T03:53:35;17.68;;;9.07;;
15502;SDS011;7853;52.186;5.948;2023-10-09T03:54:35;16.09;;;9.68;;
15502;SDS011;7853;52.186;5.948;2023-10-09T03:55:35;15.91;;;7.56;;
15502;SDS011;7853;52.186;5.948;2023-10-09T03:56:35;14.59;;;8.57;;
15502;SDS011;7853;52.186;5.948;2023-10-09T03:57:35;17.15;;;9.45;;
15502;SDS011;7853;52.186;5.948;2023-10-09T03:58:35;16.15;;;9.36;;
15502;SDS011;7853;52.186;5.948;2023-10-09T03:59:35;16.30;;;8.91;;
15502;SDS011;7853;52.186;5.948;2023-10-09T04:00:35;15.64;;;9.80;;
15502;SDS011;7853;52.186;5.948;2023-10-09T04:01:35;14.36;;;8.52;;
15502;SDS011;7853;52.186;5.948;2023-10-09T04:02:35;15.34;;;8.86;;
15502;SDS011;7853;52.186;5.948;2023-10-09T04:03:35;16.27;;;8.46;;
15502;SDS011;7853;52.186;5.948;2023-10-09T04:04:35;17.11;;;9.17;;
15502;SDS011;7853;52.186;5.948;2023-10-09T04:05:35;15.52;;;8.77;;
15502;SDS011;7853;52.186;5.948;2023-10-09T04:06:35;17.41;;;9.69;;
15502;SDS011;7853;52.186;5.948;2023-10-09T04:07:35;15.81;;;10.02;;
15502;SDS011;7853;52.186;5.948;2023-10-09T04:08:35;16.61;;;9.41;;
15502;SDS011;7853;52.186;5.948;2023-10-09T04:09:35;15.93;;;9.54;;
15502;SDS011;7853;52.186;5.948;2023-10-09T04:10:35;16.17;;;9.48;;
15502;SDS011;7853;52.186;5.948;2023-10-09T04:11:35;14.59;;;9.04;;
15502;SDS011;7853;52.186;5.948;2023-10-09T04:12:35;16.56;;;9.58;;
15502;SDS011;7853;52.186;5.948;2023-10-09T04:13:35;17.75;;;9.70;;
15502;SDS011;7853;52.186;5.948;2023-10-09T04:14:35;18.61;;;9.59;;
15502;SDS011;7853;52.186;5.948;2023-10-09T04:15:35;17.76;;;10.13;;
15502;SDS011;7853;52.186;5.948;2023-10-09T04:16:35;18.80;;;10.07;;
15502;SDS011;7853;52.186;5.948;2023-10-09T04:17:38;18.31;;;9.88;;
15502;SDS011;7853;52.186;5.948;2023-10-09T04:18:35;14.17;;;8.85;;
15502;SDS011;7853;52.186;5.948;2023-10-09T04:19:35;17.01;;;9.50;;
15502;SDS011;7853;52.186;5.948;2023-10-09T04:20:35;16.81;;;9.35;;
15502;SDS011;7853;52.186;5.948;2023-10-09T04:21:35;17.00;;;9.67;;
15502;SDS011;7853;52.186;5.948;2023-10-09T04:22:35;15.41;;;9.26;;
15502;SDS011;7853;52.186;5.948;2023-10-09T04:23:35;17.49;;;9.60;;
15502;SDS011;7853;52.186;5.948;2023-10-09T04:24:35;17.44;;;9.63;;
15502;SDS011;7853;52.186;5.948;2023-10-09T04:25:35;15.15;;;9.36;;
15502;SDS011;7853;52.186;5.948;2023-10-09T04:26:35;19.38;;;10.06;;
15502;SDS011;7853;52.186;5.948;2023-10-09T04:27:35;14.22;;;8.90;;
15502;SDS011;7853;52.186;5.948;2023-10-09T04:28:35;18.82;;;9.20;;
15502;SDS011;7853;52.186;5.948;2023-10-09T04:29:35;16.53;;;9.50;;
15502;SDS011;7853;52.186;5.948;2023-10-09T04:30:35;18.25;;;9.95;;
15502;SDS011;7853;52.186;5.948;2023-10-09T04:31:35;14.65;;;8.71;;
15502;SDS011;7853;52.186;5.948;2023-10-09T04:32:35;17.58;;;9.24;;
15502;SDS011;7853;52.186;5.948;2023-10-09T04:33:35;16.75;;;9.11;;
15502;SDS011;7853;52.186;5.948;2023-10-09T04:34:35;17.69;;;10.47;;
15502;SDS011;7853;52.186;5.948;2023-10-09T04:35:35;17.23;;;9.83;;
15502;SDS011;7853;52.186;5.948;2023-10-09T04:36:35;16.67;;;9.61;;
15502;SDS011;7853;52.186;5.948;2023-10-09T04:37:35;15.97;;;8.83;;
15502;SDS011;7853;52.186;5.948;2023-10-09T04:38:35;18.31;;;10.28;;
15502;SDS011;7853;52.186;5.948;2023-10-09T04:39:35;17.33;;;9.93;;
15502;SDS011;7853;52.186;5.948;2023-10-09T04:40:35;17.22;;;9.85;;
15502;SDS011;7853;52.186;5.948;2023-10-09T04:41:35;16.49;;;9.50;;
15502;SDS011;7853;52.186;5.948;2023-10-09T04:42:35;14.18;;;9.17;;
15502;SDS011;7853;52.186;5.948;2023-10-09T04:43:35;15.69;;;9.76;;
15502;SDS011;7853;52.186;5.948;2023-10-09T04:44:35;16.30;;;9.58;;
15502;SDS011;7853;52.186;5.948;2023-10-09T04:45:35;17.04;;;9.38;;
15502;SDS011;7853;52.186;5.948;2023-10-09T04:46:35;17.22;;;9.17;;
15502;SDS011;7853;52.186;5.948;2023-10-09T04:47:35;14.74;;;9.64;;
15502;SDS011;7853;52.186;5.948;2023-10-09T04:48:35;17.10;;;9.77;;
15502;SDS011;7853;52.186;5.948;2023-10-09T04:49:35;16.18;;;9.46;;
15502;SDS011;7853;52.186;5.948;2023-10-09T04:50:35;14.84;;;9.01;;
15502;SDS011;7853;52.186;5.948;2023-10-09T04:51:35;16.26;;;9.15;;
15502;SDS011;7853;52.186;5.948;2023-10-09T04:52:35;15.82;;;9.12;;
15502;SDS011;7853;52.186;5.948;2023-10-09T04:53:35;15.86;;;8.94;;
15502;SDS011;7853;52.186;5.948;2023-10-09T04:54:35;15.38;;;8.72;;
15502;SDS011;7853;52.186;5.948;2023-10-09T04:55:35;15.63;;;8.79;;
15502;SDS011;7853;52.186;5.948;2023-10-09T04:56:35;15.01;;;8.38;;
15502;SDS011;7853;52.186;5.948;2023-10-09T04:57:39;16.12;;;9.31;;
15502;SDS011;7853;52.186;5.948;2023-10-09T04:58:35;16.11;;;9.42;;
15502;SDS011;7853;52.186;5.948;2023-10-09T04:59:35;14.74;;;9.27;;
15502;SDS011;7853;52.186;5.948;2023-10-09T05:00:35;15.13;;;9.21;;
15502;SDS011;7853;52.186;5.948;2023-10-09T05:01:35;16.50;;;9.32;;
15502;SDS011;7853;52.186;5.948;2023-10-09T05:02:35;15.68;;;9.02;;
15502;SDS011;7853;52.186;5.948;2023-10-09T05:03:35;17.84;;;9.34;;
15502;SDS011;7853;52.186;5.948;2023-10-09T05:04:35;17.08;;;9.26;;
15502;SDS011;7853;52.186;5.948;2023-10-09T05:05:35;13.01;;;7.73;;
15502;SDS011;7853;52.186;5.948;2023-10-09T05:06:35;14.58;;;8.48;;
15502;SDS011;7853;52.186;5.948;2023-10-09T05:07:35;15.04;;;9.29;;
15502;SDS011;7853;52.186;5.948;2023-10-09T05:08:35;14.22;;;8.83;;
15502;SDS011;7853;52.186;5.948;2023-10-09T05:09:35;15.41;;;9.29;;
15502;SDS011;7853;52.186;5.948;2023-10-09T05:10:35;14.11;;;8.21;;
15502;SDS011;7853;52.186;5.948;2023-10-09T05:11:35;15.04;;;8.48;;
15502;SDS011;7853;52.186;5.948;2023-10-09T05:12:35;14.68;;;8.85;;
15502;SDS011;7853;52.186;5.948;2023-10-09T05:13:35;16.17;;;9.10;;
15502;SDS011;7853;52.186;5.948;2023-10-09T05:14:35;14.67;;;8.63;;
15502;SDS011;7853;52.186;5.948;2023-10-09T05:15:35;14.21;;;8.52;;
15502;SDS011;7853;52.186;5.948;2023-10-09T05:16:35;16.85;;;8.82;;
15502;SDS011;7853;52.186;5.948;2023-10-09T05:17:35;16.52;;;8.87;;
15502;SDS011;7853;52.186;5.948;2023-10-09T05:18:35;15.43;;;9.08;;
15502;SDS011;7853;52.186;5.948;2023-10-09T05:19:35;16.22;;;9.01;;
15502;SDS011;7853;52.186;5.948;2023-10-09T05:20:35;16.61;;;9.33;;
15502;SDS011;7853;52.186;5.948;2023-10-09T05:21:35;13.81;;;8.36;;
15502;SDS011;7853;52.186;5.948;2023-10-09T05:22:35;15.80;;;8.67;;
15502;SDS011;7853;52.186;5.948;2023-10-09T05:23:35;15.87;;;8.58;;
15502;SDS011;7853;52.186;5.948;2023-10-09T05:24:35;16.51;;;8.47;;
15502;SDS011;7853;52.186;5.948;2023-10-09T05:25:35;16.26;;;8.69;;
15502;SDS011;7853;52.186;5.948;2023-10-09T05:26:35;14.83;;;8.33;;
15502;SDS011;7853;52.186;5.948;2023-10-09T05:27:35;14.94;;;8.29;;
15502;SDS011;7853;52.186;5.948;2023-10-09T05:28:35;14.79;;;8.87;;
15502;SDS011;7853;52.186;5.948;2023-10-09T05:29:35;14.83;;;8.98;;
15502;SDS011;7853;52.186;5.948;2023-10-09T05:30:35;15.00;;;8.49;;
15502;SDS011;7853;52.186;5.948;2023-10-09T05:31:35;14.32;;;8.33;;
15502;SDS011;7853;52.186;5.948;2023-10-09T05:32:35;16.98;;;8.91;;
15502;SDS011;7853;52.186;5.948;2023-10-09T05:33:35;14.95;;;8.93;;
15502;SDS011;7853;52.186;5.948;2023-10-09T05:34:35;14.79;;;8.70;;
15502;SDS011;7853;52.186;5.948;2023-10-09T05:35:35;13.27;;;8.34;;
15502;SDS011;7853;52.186;5.948;2023-10-09T05:36:35;14.32;;;8.85;;
15502;SDS011;7853;52.186;5.948;2023-10-09T05:37:37;13.29;;;8.20;;
15502;SDS011;7853;52.186;5.948;2023-10-09T05:38:35;15.38;;;8.30;;
15502;SDS011;7853;52.186;5.948;2023-10-09T05:39:35;15.25;;;7.84;;
15502;SDS011;7853;52.186;5.948;2023-10-09T05:40:35;15.86;;;8.58;;
15502;SDS011;7853;52.186;5.948;2023-10-09T05:41:35;16.59;;;9.15;;
15502;SDS011;7853;52.186;5.948;2023-10-09T05:42:35;14.80;;;8.97;;
15502;SDS011;7853;52.186;5.948;2023-10-09T05:43:35;16.35;;;9.07;;
15502;SDS011;7853;52.186;5.948;2023-10-09T05:44:35;15.82;;;8.61;;
15502;SDS011;7853;52.186;5.948;2023-10-09T05:45:35;14.85;;;8.71;;
15502;SDS011;7853;52.186;5.948;2023-10-09T05:46:35;13.93;;;9.00;;
15502;SDS011;7853;52.186;5.948;2023-10-09T05:47:35;13.80;;;8.56;;
15502;SDS011;7853;52.186;5.948;2023-10-09T05:48:35;14.81;;;9.03;;
15502;SDS011;7853;52.186;5.948;2023-10-09T05:49:35;14.99;;;9.26;;
15502;SDS011;7853;52.186;5.948;2023-10-09T05:50:35;14.62;;;8.51;;
15502;SDS011;7853;52.186;5.948;2023-10-09T05:51:35;16.23;;;8.95;;
15502;SDS011;7853;52.186;5.948;2023-10-09T05:52:35;14.29;;;8.75;;
15502;SDS011;7853;52.186;5.948;2023-10-09T05:53:35;15.95;;;8.47;;
15502;SDS011;7853;52.186;5.948;2023-10-09T05:54:35;14.34;;;8.56;;
15502;SDS011;7853;52.186;5.948;2023-10-09T05:55:35;14.72;;;8.77;;
15502;SDS011;7853;52.186;5.948;2023-10-09T05:56:35;14.45;;;8.86;;
15502;SDS011;7853;52.186;5.948;2023-10-09T05:57:35;15.12;;;8.97;;
15502;SDS011;7853;52.186;5.948;2023-10-09T05:58:35;16.22;;;8.86;;